Main page
METAR-TAF:

METAR-TAF

Airports :

RAF Cranwell

Cranwell, England

latitude: 53-02N, longitude: 000-30W, elevation: 67 m

Current weather observation

The report was made 1 hour and 1 minutes ago, at 00:50 UTC
Wind 18 kt from the West/Southwest
Temperature 4°C
Humidity 75%
Pressure 1013 hPa
Visibility 10 km or more

METAR: EGYD 180050Z AUTO 25018KT 9999 // NCD 04/00 Q1013

Time: 01:51 (01:51 UTC)

Forecast

The report was made 9 hours and 57 minutes ago, at 15:54 UTC
Forecast valid from 17 at 15 UTC to 17 at 19 UTC
Wind 22 kt from the West/Southwest with gusts up to 32 kt
Visibility 10 km or more
Few clouds at a height of 2200 ft
Probability 30% :
Temporary
from 17 at 15 UTC to 17 at 19 UTC
Visibility: 7000 m
Scattered clouds at a height of 2200 ft, Cumulonimbus.
rain showers

TAF: EGYD 171554Z 1715/1719 25022G32KT 9999 FEW022 PROB30 TEMPO 1715/1719 7000 SHRA SCT022CB

Weather observations and forecasts of more than 4000 airports (METAR and TAF reports).

The available stations are represented by yellow and red dots on the map.

Hover mouse over dot to see the name of the station.

Then click to see weather observations and forecasts.

To change the map : click on the green buttons with a black cross to zoom in, on the green button with a dash to zoom out, or on the green arrows for adjacent maps.


METAR-TAF: